Time;durP1;ratioP1;P1;durP2;ratioP2;P2;SDS_P1;SDS_P2;PMS_P1;PMS_P2;Temp;Humidity;BMP_temperature;BMP_pressure;BME280_temperature;BME280_humidity;BME280_pressure;Samples;Min_cycle;Max_cycle;Signal;HPM_P1;HPM_P2
2022/11/20 00:01:24;;;;;;;17.90;9.30;;;-3.40;99.90;;;;;;5033135;28;20021;-72
2022/11/20 00:03:52;;;;;;;18.98;9.25;;;-3.40;99.90;;;;;;5015572;28;20048;-73
2022/11/20 00:06:19;;;;;;;21.75;9.60;;;-3.50;99.90;;;;;;5014028;28;20025;-73
2022/11/20 00:08:46;;;;;;;22.30;9.93;;;-3.50;99.90;;;;;;5028856;28;20029;-73
2022/11/20 00:11:16;;;;;;;23.88;9.40;;;-3.60;99.90;;;;;;5028444;28;20036;-72
2022/11/20 00:13:43;;;;;;;17.70;8.88;;;-3.60;99.90;;;;;;5030186;28;20030;-73
2022/11/20 00:16:11;;;;;;;23.40;10.52;;;-3.70;99.90;;;;;;5030864;28;20056;-73
2022/11/20 00:18:37;;;;;;;21.52;9.48;;;-3.70;99.90;;;;;;5027168;28;20249;-72
2022/11/20 00:21:12;;;;;;;19.65;9.18;;;-3.70;99.90;;;;;;4996281;28;20045;-73
2022/11/20 00:23:41;;;;;;;18.48;9.00;;;-3.80;99.90;;;;;;5027872;28;20021;-73
2022/11/20 00:26:13;;;;;;;22.67;9.77;;;-3.80;99.90;;;;;;5031289;28;20044;-73
2022/11/20 00:28:39;;;;;;;19.77;9.95;;;-3.80;99.90;;;;;;5029722;28;20069;-72
2022/11/20 00:31:09;;;;;;;24.42;9.50;;;-3.80;99.90;;;;;;5036064;28;20077;-72
2022/11/20 00:33:35;;;;;;;18.45;9.35;;;-3.80;99.90;;;;;;5007050;28;20034;-72
2022/11/20 00:36:09;;;;;;;21.40;9.30;;;-3.80;99.90;;;;;;5012239;28;20030;-72
2022/11/20 00:38:35;;;;;;;22.05;10.27;;;-3.80;99.90;;;;;;5032420;28;20068;-72
2022/11/20 00:41:06;;;;;;;22.52;10.35;;;-3.80;99.90;;;;;;5031127;28;20034;-73
2022/11/20 00:43:32;;;;;;;23.63;11.00;;;-3.90;99.90;;;;;;5029020;28;20029;-73
2022/11/20 00:45:59;;;;;;;22.92;10.18;;;-3.90;99.90;;;;;;5015742;28;20044;-73
2022/11/20 00:48:25;;;;;;;20.85;9.65;;;-3.80;99.90;;;;;;5026703;28;20052;-73
2022/11/20 00:50:51;;;;;;;23.00;10.82;;;-3.90;99.90;;;;;;5031380;28;20553;-73
2022/11/20 00:53:17;;;;;;;19.27;9.35;;;-3.90;99.90;;;;;;5014366;28;20029;-73
2022/11/20 00:55:52;;;;;;;24.45;10.48;;;-3.90;99.90;;;;;;5009241;28;20034;-73
2022/11/20 00:58:17;;;;;;;24.30;11.43;;;-3.90;99.90;;;;;;5030487;28;20091;-72
2022/11/20 01:00:43;;;;;;;22.33;9.65;;;-3.90;99.90;;;;;;5045233;28;20418;-72
2022/11/20 01:03:10;;;;;;;23.50;10.18;;;-4.00;99.90;;;;;;5012243;28;20482;-72
2022/11/20 01:05:35;;;;;;;22.95;10.55;;;-4.00;99.90;;;;;;5011371;28;20037;-73
2022/11/20 01:08:01;;;;;;;24.17;11.63;;;-4.00;99.90;;;;;;5009830;28;20025;-73
2022/11/20 01:10:27;;;;;;;23.23;10.63;;;-4.00;99.90;;;;;;5028249;28;20437;-73
2022/11/20 01:13:36;;;;;;;23.15;11.60;;;-4.00;99.90;;;;;;5027728;28;20413;-73
2022/11/20 01:15:39;;;;;;;21.25;10.25;;;-4.00;99.90;;;;;;5029109;28;20029;-72
2022/11/20 01:18:05;;;;;;;21.08;9.82;;;-4.00;99.90;;;;;;5028040;28;20033;-73
2022/11/20 01:20:37;;;;;;;25.77;10.73;;;-4.10;99.90;;;;;;5034566;28;20026;-73
2022/11/20 01:23:04;;;;;;;23.15;9.88;;;-4.10;99.90;;;;;;5030323;28;20037;-73
2022/11/20 01:25:30;;;;;;;21.83;10.75;;;-4.10;99.90;;;;;;5030671;28;20040;-73
2022/11/20 01:27:56;;;;;;;26.05;11.23;;;-4.10;99.90;;;;;;5033374;28;20030;-73
2022/11/20 01:30:24;;;;;;;25.83;12.02;;;-4.20;99.90;;;;;;5018344;28;20132;-73
2022/11/20 01:32:50;;;;;;;24.40;11.07;;;-4.20;99.90;;;;;;5003221;28;20107;-73
2022/11/20 01:35:16;;;;;;;24.00;11.10;;;-4.20;99.90;;;;;;5028532;28;20361;-72
2022/11/20 01:37:45;;;;;;;22.77;10.10;;;-4.20;99.90;;;;;;5010937;28;20033;-74
2022/11/20 01:40:11;;;;;;;24.55;10.70;;;-4.20;99.90;;;;;;5010629;28;20029;-72
2022/11/20 01:45:53;;;;;;;24.52;11.18;;;-4.10;99.90;;;;;;5025466;28;20061;-72
2022/11/20 01:48:22;;;;;;;21.38;10.48;;;-4.00;99.90;;;;;;5031559;28;20030;-72
2022/11/20 01:50:48;;;;;;;22.50;11.13;;;-4.10;99.90;;;;;;5026131;28;20036;-72
2022/11/20 01:53:21;;;;;;;28.63;13.05;;;-4.00;99.90;;;;;;5014548;28;20025;-72
2022/11/20 01:55:59;;;;;;;25.20;11.30;;;-4.10;99.90;;;;;;5034182;28;20026;-72
2022/11/20 01:58:29;;;;;;;25.88;11.40;;;-4.00;99.90;;;;;;5037343;28;20029;-73
2022/11/20 02:00:55;;;;;;;23.42;10.65;;;-4.10;99.90;;;;;;5035083;28;20041;-72
2022/11/20 02:03:22;;;;;;;27.33;11.25;;;-4.00;99.90;;;;;;5027392;28;20033;-73
2022/11/20 02:06:21;;;;;;;27.67;12.25;;;-4.00;99.90;;;;;;5031790;28;20097;-72
2022/11/20 02:08:47;;;;;;;25.20;11.18;;;-4.00;99.90;;;;;;5037959;28;20030;-73
2022/11/20 02:11:13;;;;;;;23.73;11.45;;;-4.10;99.90;;;;;;5019707;28;20072;-73
2022/11/20 02:13:43;;;;;;;25.15;11.40;;;-4.10;99.90;;;;;;5026248;28;20526;-72
2022/11/20 02:16:20;;;;;;;28.52;12.07;;;-4.10;99.90;;;;;;5038644;28;20072;-73
2022/11/20 02:18:47;;;;;;;28.45;11.82;;;-4.10;99.90;;;;;;5039463;28;20430;-73
2022/11/20 02:21:53;;;;;;;25.70;11.52;;;-4.10;99.90;;;;;;5038780;28;20562;-70
2022/11/20 02:24:21;;;;;;;23.90;10.30;;;-4.10;99.90;;;;;;5023443;28;20124;-73
2022/11/20 02:26:54;;;;;;;28.75;11.63;;;-4.10;99.90;;;;;;5036705;28;20024;-72
2022/11/20 02:29:32;;;;;;;24.15;10.82;;;-4.10;99.90;;;;;;5036585;28;20056;-72
2022/11/20 02:32:01;;;;;;;22.88;10.27;;;-4.10;99.90;;;;;;5017028;28;20044;-74
2022/11/20 02:34:26;;;;;;;24.13;11.55;;;-4.20;99.90;;;;;;5024105;28;20037;-72
2022/11/20 02:36:53;;;;;;;23.80;11.50;;;-4.20;99.90;;;;;;5017491;28;20133;-72
2022/11/20 02:39:25;;;;;;;29.95;11.90;;;-4.20;99.90;;;;;;5017114;28;20030;-72
2022/11/20 02:41:56;;;;;;;27.77;11.70;;;-4.30;99.90;;;;;;5016780;28;20025;-72
2022/11/20 02:44:21;;;;;;;22.92;11.50;;;-4.30;99.90;;;;;;5019546;28;20046;-72
2022/11/20 02:46:50;;;;;;;25.05;11.40;;;-4.30;99.90;;;;;;5016973;28;20357;-72
2022/11/20 02:49:16;;;;;;;24.05;10.63;;;-4.30;99.90;;;;;;5014919;28;20026;-73
2022/11/20 02:51:45;;;;;;;30.17;13.15;;;-4.30;99.90;;;;;;5013690;28;20088;-72
2022/11/20 02:54:11;;;;;;;28.58;12.32;;;-4.20;99.90;;;;;;5018785;28;20056;-72
2022/11/20 02:56:39;;;;;;;25.08;12.27;;;-4.10;99.90;;;;;;5015043;28;20022;-72
2022/11/20 02:59:14;;;;;;;23.80;11.02;;;-4.20;99.90;;;;;;5015577;28;20029;-74
2022/11/20 03:01:40;;;;;;;23.77;10.65;;;-4.10;99.90;;;;;;5011885;28;20030;-73
2022/11/20 03:04:09;;;;;;;23.75;10.82;;;-4.20;99.90;;;;;;5014108;28;20142;-73
2022/11/20 03:06:35;;;;;;;24.60;12.02;;;-4.20;99.90;;;;;;5022263;28;20453;-73
2022/11/20 03:09:06;;;;;;;25.38;11.98;;;-4.30;99.90;;;;;;5012636;28;20029;-73
2022/11/20 03:11:40;;;;;;;24.80;11.33;;;-4.30;99.90;;;;;;5009502;28;20030;-74
2022/11/20 03:14:08;;;;;;;26.00;11.60;;;-4.30;99.90;;;;;;5025864;28;20037;-73
2022/11/20 03:16:37;;;;;;;24.02;11.07;;;-4.40;99.90;;;;;;5008903;28;20132;-73
2022/11/20 03:19:03;;;;;;;26.05;10.35;;;-4.40;99.90;;;;;;5016977;28;20034;-73
2022/11/20 03:21:33;;;;;;;23.92;11.52;;;-4.40;99.90;;;;;;5015645;28;20056;-72
2022/11/20 03:24:03;;;;;;;23.85;10.90;;;-4.40;99.90;;;;;;5019976;28;20033;-72
2022/11/20 03:26:29;;;;;;;22.77;10.77;;;-4.40;99.90;;;;;;5005342;28;20104;-72
2022/11/20 03:28:57;;;;;;;29.10;12.52;;;-4.40;99.90;;;;;;5011307;28;20105;-72
2022/11/20 03:31:32;;;;;;;29.48;12.55;;;-4.40;99.90;;;;;;5023663;28;20441;-74
2022/11/20 03:33:59;;;;;;;27.48;12.40;;;-4.40;99.90;;;;;;5029168;28;20049;-72
2022/11/20 03:36:27;;;;;;;25.15;11.43;;;-4.40;99.90;;;;;;4998092;28;20115;-74
2022/11/20 03:38:56;;;;;;;24.55;11.07;;;-4.40;99.90;;;;;;5005930;28;20084;-73
2022/11/20 03:41:26;;;;;;;26.55;12.25;;;-4.50;99.90;;;;;;5028425;28;20029;-72
2022/11/20 03:44:00;;;;;;;22.30;11.25;;;-4.50;99.90;;;;;;5032644;28;20048;-73
2022/11/20 03:46:28;;;;;;;25.25;11.23;;;-4.50;99.90;;;;;;5016334;28;20030;-73
2022/11/20 03:48:54;;;;;;;24.27;10.52;;;-4.50;99.90;;;;;;5026776;28;20049;-72
2022/11/20 03:51:26;;;;;;;29.27;12.60;;;-4.50;99.90;;;;;;5012635;28;20101;-72
2022/11/20 03:53:54;;;;;;;28.95;12.80;;;-4.50;99.90;;;;;;5032441;28;20032;-72
2022/11/20 03:56:26;;;;;;;24.75;11.85;;;-4.50;99.90;;;;;;5012807;28;20064;-73
2022/11/20 03:58:52;;;;;;;28.55;12.77;;;-4.50;99.90;;;;;;5033157;28;20029;-73
2022/11/20 04:01:38;;;;;;;25.42;11.52;;;-4.50;99.90;;;;;;5028145;28;20040;-73
2022/11/20 04:04:07;;;;;;;24.45;11.52;;;-4.60;99.90;;;;;;5033280;28;20495;-72
2022/11/20 04:06:46;;;;;;;22.35;11.20;;;-4.60;99.90;;;;;;5031746;28;20033;-73
2022/11/20 04:09:15;;;;;;;25.08;11.38;;;-4.70;99.90;;;;;;5029120;28;20056;-73
2022/11/20 04:11:42;;;;;;;23.13;10.05;;;-4.70;99.90;;;;;;5029561;28;20048;-72
2022/11/20 04:14:13;;;;;;;28.63;11.63;;;-4.70;99.90;;;;;;5030197;28;20025;-72
2022/11/20 04:16:42;;;;;;;20.13;9.57;;;-4.70;99.90;;;;;;5013372;28;20498;-73
2022/11/20 04:19:13;;;;;;;26.48;12.00;;;-4.70;99.90;;;;;;5024272;28;20042;-72
2022/11/20 04:21:39;;;;;;;25.88;11.27;;;-4.60;99.90;;;;;;5030467;28;20055;-73
2022/11/20 04:24:10;;;;;;;26.55;12.45;;;-4.70;99.90;;;;;;5030529;28;20034;-73
2022/11/20 04:26:36;;;;;;;25.48;12.77;;;-4.70;99.90;;;;;;5009984;28;20102;-72
2022/11/20 04:29:03;;;;;;;24.88;11.95;;;-4.80;99.90;;;;;;5028241;28;20037;-72
2022/11/20 04:31:31;;;;;;;24.50;11.43;;;-4.80;99.90;;;;;;5014931;28;20042;-72
2022/11/20 04:34:00;;;;;;;23.52;11.45;;;-4.80;99.90;;;;;;5028388;28;20037;-72
2022/11/20 04:36:29;;;;;;;27.08;11.52;;;-4.80;99.90;;;;;;5013706;28;20562;-73
2022/11/20 04:39:00;;;;;;;28.15;12.43;;;-4.80;99.90;;;;;;5009675;28;20061;-72
2022/11/20 04:41:33;;;;;;;26.08;12.75;;;-4.80;99.90;;;;;;5006583;28;20459;-71
2022/11/20 04:44:04;;;;;;;26.58;11.00;;;-4.80;99.90;;;;;;5026757;28;20123;-72
2022/11/20 04:46:37;;;;;;;24.83;11.07;;;-4.80;99.90;;;;;;5007053;28;20029;-71
2022/11/20 04:49:02;;;;;;;;;;;-4.90;99.90;;;;;;5027569;28;20022;-72
2022/11/20 04:51:29;;;;;;;25.65;11.60;;;-4.90;99.90;;;;;;5027073;28;19935;-72
2022/11/20 04:53:55;;;;;;;26.60;12.00;;;-4.80;99.90;;;;;;5030298;28;20023;-72
2022/11/20 04:56:21;;;;;;;24.50;11.85;;;-4.80;99.90;;;;;;5028694;28;20035;-72
2022/11/20 04:58:47;;;;;;;23.80;11.32;;;-4.80;99.90;;;;;;5007502;28;20029;-73
2022/11/20 05:01:15;;;;;;;28.38;11.68;;;-4.80;99.90;;;;;;5028212;28;20574;-72
2022/11/20 05:03:42;;;;;;;24.10;10.80;;;-4.80;99.90;;;;;;5009636;28;20025;-73
2022/11/20 05:06:11;;;;;;;25.77;12.45;;;-4.90;99.90;;;;;;5027717;28;20043;-74
2022/11/20 05:08:37;;;;;;;27.10;11.70;;;-4.90;99.90;;;;;;5008161;28;20033;-72
2022/11/20 05:11:10;;;;;;;31.55;12.32;;;-5.00;99.90;;;;;;5022493;28;20029;-73
2022/11/20 05:13:36;;;;;;;24.88;10.85;;;-5.00;99.90;;;;;;5004974;28;20372;-74
2022/11/20 05:16:08;;;;;;;23.95;10.82;;;-5.00;99.90;;;;;;5029747;28;20053;-73
2022/11/20 05:18:35;;;;;;;26.33;12.17;;;-5.00;99.90;;;;;;5027946;28;20029;-73
2022/11/20 05:21:01;;;;;;;26.08;11.80;;;-5.00;99.90;;;;;;5010719;28;20125;-72
2022/11/20 05:23:29;;;;;;;26.23;12.10;;;-5.00;99.90;;;;;;5011745;28;20121;-74
2022/11/20 05:25:56;;;;;;;28.77;12.82;;;-4.90;99.90;;;;;;5009062;28;20499;-73
2022/11/20 05:28:22;;;;;;;25.85;12.63;;;-4.90;99.90;;;;;;5003306;28;20025;-73
2022/11/20 05:30:48;;;;;;;26.20;12.45;;;-4.90;99.90;;;;;;5014800;28;20082;-73
2022/11/20 05:33:15;;;;;;;26.60;11.68;;;-4.90;99.90;;;;;;5028623;28;20021;-73
2022/11/20 05:35:41;;;;;;;30.63;14.10;;;-4.90;99.90;;;;;;5019905;28;20061;-73
2022/11/20 05:38:10;;;;;;;29.73;14.20;;;-4.80;99.90;;;;;;5003674;28;20036;-73
2022/11/20 05:40:36;;;;;;;28.35;13.55;;;-4.80;99.90;;;;;;5028795;28;20033;-73
2022/11/20 05:43:02;;;;;;;29.10;12.82;;;-4.80;99.90;;;;;;5013826;28;20072;-73
2022/11/20 05:45:28;;;;;;;28.73;12.80;;;-4.80;99.90;;;;;;5007989;28;20069;-73
2022/11/20 05:47:58;;;;;;;24.80;12.43;;;-4.80;99.90;;;;;;5030591;28;20025;-73
2022/11/20 05:50:25;;;;;;;29.38;12.55;;;-4.90;99.90;;;;;;5014887;28;20440;-72
2022/11/20 05:52:50;;;;;;;29.63;12.90;;;-4.90;99.90;;;;;;5014700;28;20397;-72
2022/11/20 05:55:16;;;;;;;25.77;12.20;;;-4.90;99.90;;;;;;5010300;28;20060;-73
2022/11/20 05:57:42;;;;;;;26.65;12.73;;;-4.90;99.90;;;;;;5034078;28;20029;-73
2022/11/20 06:00:12;;;;;;;25.90;12.10;;;-4.90;99.90;;;;;;5013683;28;20068;-73
2022/11/20 06:02:38;;;;;;;27.42;12.73;;;-5.00;99.90;;;;;;5034193;28;20037;-73
2022/11/20 06:05:07;;;;;;;27.90;12.48;;;-5.10;99.90;;;;;;5028521;28;20084;-72
2022/11/20 06:07:32;;;;;;;25.52;11.23;;;-5.10;99.90;;;;;;5033228;28;20057;-72
2022/11/20 06:09:58;;;;;;;30.38;12.10;;;-5.10;99.90;;;;;;5028701;28;20458;-73
2022/11/20 06:12:24;;;;;;;26.08;12.15;;;-5.20;99.90;;;;;;5011912;28;20030;-73
2022/11/20 06:14:52;;;;;;;29.83;12.57;;;-5.20;99.90;;;;;;5032791;28;20463;-73
2022/11/20 06:17:18;;;;;;;29.05;12.20;;;-5.20;99.90;;;;;;5005081;28;20509;-72
2022/11/20 06:19:44;;;;;;;28.33;11.73;;;-5.20;99.90;;;;;;5015678;28;20022;-73
2022/11/20 06:22:11;;;;;;;27.20;12.40;;;-5.10;99.90;;;;;;5033901;28;20471;-73
2022/11/20 06:24:36;;;;;;;26.40;11.82;;;-5.20;99.90;;;;;;5034023;28;20406;-73
2022/11/20 06:27:02;;;;;;;28.23;12.25;;;-5.10;99.90;;;;;;5013357;28;20021;-72
2022/11/20 06:29:28;;;;;;;25.20;11.25;;;-5.10;99.90;;;;;;5039711;28;20182;-72
2022/11/20 06:31:54;;;;;;;31.60;12.93;;;-5.00;99.90;;;;;;5012377;28;20041;-72
2022/11/20 06:34:23;;;;;;;24.90;11.15;;;-5.00;99.90;;;;;;5016069;28;20095;-73
2022/11/20 06:36:48;;;;;;;27.50;13.45;;;-4.90;99.90;;;;;;5014546;28;20045;-73
2022/11/20 06:39:14;;;;;;;26.63;12.95;;;-4.90;99.90;;;;;;5031747;28;20169;-72
2022/11/20 06:41:39;;;;;;;25.45;11.65;;;-4.90;99.90;;;;;;5035080;28;20037;-72
2022/11/20 06:44:05;;;;;;;25.75;12.23;;;-4.80;99.90;;;;;;5014945;28;20037;-72
2022/11/20 06:46:31;;;;;;;27.45;11.57;;;-4.80;99.90;;;;;;5022419;28;20033;-72
2022/11/20 06:48:58;;;;;;;30.10;12.82;;;-4.80;99.90;;;;;;5014403;28;20121;-72
2022/11/20 06:51:23;;;;;;;30.15;11.93;;;-4.80;99.90;;;;;;5029651;28;20108;-72
2022/11/20 06:53:49;;;;;;;31.63;13.30;;;-4.80;99.90;;;;;;5032410;28;20518;-72
2022/11/20 06:56:15;;;;;;;25.38;12.35;;;-4.80;99.90;;;;;;5031749;28;20444;-72
2022/11/20 06:58:40;;;;;;;27.20;12.13;;;-4.80;99.90;;;;;;5011954;28;20091;-71
2022/11/20 07:01:09;;;;;;;27.48;12.00;;;-4.90;99.90;;;;;;5011790;28;20152;-72
2022/11/20 07:03:35;;;;;;;25.35;12.38;;;-4.90;99.90;;;;;;5013642;28;20038;-72
2022/11/20 07:06:01;;;;;;;25.98;11.43;;;-4.90;99.90;;;;;;5031466;28;20087;-72
2022/11/20 07:08:28;;;;;;;27.42;13.57;;;-4.90;99.90;;;;;;5037702;28;20391;-72
2022/11/20 07:11:00;;;;;;;29.27;12.32;;;-4.90;99.90;;;;;;5033785;28;20033;-72
2022/11/20 07:13:27;;;;;;;27.55;12.02;;;-4.80;99.90;;;;;;5039052;28;20036;-71
2022/11/20 07:15:53;;;;;;;29.52;13.65;;;-4.80;99.90;;;;;;5033460;28;20021;-72
2022/11/20 07:18:19;;;;;;;29.98;13.30;;;-4.70;99.90;;;;;;5031889;28;20391;-71
2022/11/20 07:20:44;;;;;;;28.05;11.65;;;-4.70;99.90;;;;;;5030772;28;20113;-71
2022/11/20 07:23:10;;;;;;;28.67;13.20;;;-4.60;99.90;;;;;;5025637;28;20028;-72
2022/11/20 07:25:35;;;;;;;25.08;12.52;;;-4.60;99.90;;;;;;5012974;28;20037;-72
2022/11/20 07:28:01;;;;;;;29.65;13.63;;;-4.60;99.90;;;;;;5032110;28;20452;-72
2022/11/20 07:30:27;;;;;;;32.42;14.15;;;-4.50;99.90;;;;;;5014134;28;20058;-72
2022/11/20 07:32:55;;;;;;;31.23;12.73;;;-4.50;99.90;;;;;;5012036;28;20029;-72
2022/11/20 07:35:22;;;;;;;26.67;12.95;;;-4.50;99.90;;;;;;5028060;28;20025;-72
2022/11/20 07:37:48;;;;;;;29.88;12.80;;;-4.50;99.90;;;;;;5035993;28;20021;-72
2022/11/20 07:40:14;;;;;;;29.90;13.52;;;-4.40;99.90;;;;;;5026177;28;20047;-71
2022/11/20 07:42:51;;;;;;;31.30;14.07;;;-4.40;99.90;;;;;;5030560;28;20313;-72
2022/11/20 07:45:17;;;;;;;30.67;13.55;;;-4.30;99.90;;;;;;5027163;28;20033;-72
2022/11/20 07:47:43;;;;;;;27.35;11.85;;;-4.30;99.90;;;;;;5022252;28;20022;-72
2022/11/20 07:50:08;;;;;;;28.48;13.63;;;-4.20;99.90;;;;;;5026009;28;20155;-72
2022/11/20 07:52:34;;;;;;;30.05;12.82;;;-4.10;99.90;;;;;;5032140;28;20167;-72
2022/11/20 07:55:00;;;;;;;29.70;15.00;;;-4.10;99.90;;;;;;5030821;28;20426;-72
2022/11/20 07:57:25;;;;;;;32.40;14.90;;;-4.00;99.90;;;;;;5010813;28;20396;-72
2022/11/20 07:59:51;;;;;;;31.70;14.27;;;-3.90;99.90;;;;;;5014021;28;20025;-73
2022/11/20 08:02:16;;;;;;;29.83;14.30;;;-3.80;99.90;;;;;;5031554;28;20036;-72
2022/11/20 08:04:42;;;;;;;27.55;12.82;;;-3.70;99.90;;;;;;5035612;28;20151;-72
2022/11/20 08:07:07;;;;;;;29.90;14.00;;;-3.60;99.90;;;;;;5034575;28;20100;-72
2022/11/20 08:09:33;;;;;;;30.45;15.57;;;-3.50;99.90;;;;;;5034066;28;20052;-72
2022/11/20 08:14:43;;;;;;;33.65;15.02;;;-3.20;99.90;;;;;;5029346;28;20510;-72
2022/11/20 08:17:08;;;;;;;34.15;16.10;;;-3.10;99.90;;;;;;5029357;28;20026;-72
2022/11/20 08:19:34;;;;;;;31.95;14.95;;;-3.00;99.90;;;;;;5031252;28;20048;-72
2022/11/20 08:21:59;;;;;;;36.15;16.23;;;-2.80;99.90;;;;;;5032031;28;20048;-72
2022/11/20 08:24:26;;;;;;;31.23;16.00;;;-2.70;99.90;;;;;;5023805;28;20041;-72
2022/11/20 08:26:52;;;;;;;38.60;16.85;;;-2.60;99.90;;;;;;5016329;28;20073;-72
2022/11/20 08:29:17;;;;;;;33.40;16.80;;;-2.50;99.90;;;;;;5021578;28;20030;-73
2022/11/20 08:31:43;;;;;;;35.45;17.15;;;-2.30;99.90;;;;;;5031528;28;20045;-72
2022/11/20 08:34:09;;;;;;;40.55;19.40;;;-2.10;99.90;;;;;;5028903;28;20021;-71
2022/11/20 08:36:35;;;;;;;40.88;18.88;;;-2.00;99.90;;;;;;5032311;28;20025;-72
2022/11/20 08:39:01;;;;;;;35.83;17.60;;;-1.80;99.90;;;;;;5030856;28;20037;-72
2022/11/20 08:41:26;;;;;;;40.38;19.13;;;-1.70;99.90;;;;;;5013198;28;20026;-73
2022/11/20 08:43:53;;;;;;;36.22;18.65;;;-1.60;99.90;;;;;;5031622;28;20448;-72
2022/11/20 08:46:19;;;;;;;39.42;18.50;;;-1.50;99.90;;;;;;5031190;28;20033;-72
2022/11/20 08:48:45;;;;;;;35.72;18.85;;;-1.40;99.90;;;;;;5012800;28;20494;-71
2022/11/20 08:51:12;;;;;;;38.10;20.13;;;-1.30;99.90;;;;;;5030821;28;20100;-72
2022/11/20 08:53:38;;;;;;;36.42;18.58;;;-1.20;99.90;;;;;;5010412;28;20028;-72
2022/11/20 08:56:04;;;;;;;40.42;20.17;;;-1.10;99.90;;;;;;5027121;28;20092;-72
2022/11/20 08:58:30;;;;;;;37.75;19.10;;;-0.90;99.90;;;;;;5031182;28;20025;-72
2022/11/20 09:00:55;;;;;;;36.70;19.33;;;-0.90;99.90;;;;;;5029129;28;20372;-72
2022/11/20 09:03:21;;;;;;;36.83;19.27;;;-0.80;99.90;;;;;;5030994;28;20383;-72
2022/11/20 09:05:47;;;;;;;36.80;19.83;;;-0.70;99.90;;;;;;5024146;28;20037;-72
2022/11/20 09:08:13;;;;;;;46.38;20.77;;;-0.60;99.90;;;;;;5010853;28;20026;-72
2022/11/20 09:10:41;;;;;;;40.50;20.95;;;-0.60;99.90;;;;;;5029660;28;20107;-71
2022/11/20 09:13:07;;;;;;;40.53;19.70;;;-0.50;99.90;;;;;;5009854;28;20419;-72
2022/11/20 09:15:33;;;;;;;43.67;21.35;;;-0.40;99.90;;;;;;5013514;28;20025;-72
2022/11/20 09:18:02;;;;;;;40.05;20.83;;;-0.40;99.90;;;;;;5034989;28;20414;-72
2022/11/20 09:20:29;;;;;;;38.85;21.90;;;-0.30;99.90;;;;;;5025406;28;20030;-72
2022/11/20 09:22:55;;;;;;;40.72;20.95;;;-0.20;99.90;;;;;;5030020;28;20382;-72
2022/11/20 09:25:21;;;;;;;44.13;21.77;;;-0.20;99.90;;;;;;5033997;28;20102;-72
2022/11/20 09:27:47;;;;;;;39.28;20.48;;;-0.10;99.90;;;;;;5034777;28;20014;-72
2022/11/20 09:30:14;;;;;;;42.70;20.92;;;0.00;99.90;;;;;;5014643;28;20095;-72
2022/11/20 09:32:40;;;;;;;39.13;19.83;;;0.00;99.90;;;;;;5014119;28;20022;-72
2022/11/20 09:35:06;;;;;;;40.10;21.65;;;0.10;99.90;;;;;;5013582;28;20037;-72
2022/11/20 09:37:31;;;;;;;42.30;21.45;;;0.20;99.90;;;;;;5028290;28;20050;-71
2022/11/20 09:39:57;;;;;;;39.45;20.35;;;0.20;99.90;;;;;;5030795;28;20079;-71
2022/11/20 09:42:30;;;;;;;39.35;21.63;;;0.30;99.90;;;;;;5033886;28;20026;-72
2022/11/20 09:45:08;;;;;;;40.95;21.15;;;0.40;99.90;;;;;;5028935;28;20483;-71
2022/11/20 09:48:05;;;;;;;44.00;22.75;;;0.50;99.90;;;;;;5032022;28;20403;-72
2022/11/20 09:50:55;;;;;;;43.67;22.50;;;0.50;99.90;;;;;;5031344;28;20030;-72
2022/11/20 09:53:46;;;;;;;42.70;21.92;;;0.60;99.90;;;;;;5027999;28;20056;-71
2022/11/20 09:56:18;;;;;;;38.83;20.63;;;0.60;99.90;;;;;;5029930;28;20104;-72
2022/11/20 09:58:53;;;;;;;42.70;21.95;;;0.70;99.90;;;;;;5032611;28;20144;-70
2022/11/20 10:01:22;;;;;;;42.53;22.20;;;0.70;99.90;;;;;;5011846;28;20105;-72
2022/11/20 10:04:00;;;;;;;42.38;22.40;;;0.80;99.90;;;;;;5031088;28;20033;-73
2022/11/20 10:06:52;;;;;;;42.85;22.92;;;0.90;99.90;;;;;;5014961;28;20066;-72
2022/11/20 10:09:38;;;;;;;43.22;21.10;;;1.00;99.90;;;;;;5013302;28;20056;-73
2022/11/20 10:12:25;;;;;;;43.33;22.83;;;1.10;99.90;;;;;;5012461;28;20048;-72
2022/11/20 10:15:20;;;;;;;42.95;21.52;;;1.20;99.90;;;;;;5015036;28;21207;-72
2022/11/20 10:17:58;;;;;;;44.90;22.85;;;1.20;99.90;;;;;;5025970;28;20059;-72
2022/11/20 10:20:39;;;;;;;46.95;22.67;;;1.30;99.90;;;;;;5033671;28;20029;-72
2022/11/20 10:23:33;;;;;;;45.75;23.02;;;1.30;99.90;;;;;;5033914;28;20025;-72
2022/11/20 10:26:16;;;;;;;45.33;22.98;;;1.40;99.90;;;;;;5033513;28;20042;-72
2022/11/20 10:29:13;;;;;;;45.58;22.63;;;1.40;99.90;;;;;;5022001;28;20029;-73
2022/11/20 10:32:00;;;;;;;45.67;23.13;;;1.50;99.90;;;;;;5026774;28;20139;-72
2022/11/20 10:35:03;;;;;;;45.35;23.45;;;1.60;99.90;;;;;;5032688;28;21147;-73
2022/11/20 10:37:33;;;;;;;41.95;21.80;;;1.60;99.90;;;;;;5034916;28;20114;-74
2022/11/20 10:40:03;;;;;;;43.35;22.23;;;1.70;99.90;;;;;;5031624;28;20018;-73
2022/11/20 10:42:44;;;;;;;47.33;23.55;;;1.70;99.90;;;;;;5015403;28;20405;-72
2022/11/20 10:45:25;;;;;;;44.97;23.70;;;1.80;99.90;;;;;;5020729;28;20075;-71
2022/11/20 10:47:54;;;;;;;45.70;23.60;;;1.90;99.90;;;;;;5031600;28;20103;-73
2022/11/20 10:50:21;;;;;;;43.60;22.83;;;2.00;99.90;;;;;;5025928;28;20037;-72
2022/11/20 10:53:08;;;;;;;45.45;24.27;;;2.00;99.90;;;;;;5034031;28;20391;-73
2022/11/20 10:55:46;;;;;;;44.13;22.63;;;2.10;99.90;;;;;;5028481;28;20429;-72
2022/11/20 10:58:46;;;;;;;45.05;23.27;;;2.20;99.90;;;;;;5014028;28;20033;-77
2022/11/20 11:01:18;;;;;;;40.55;23.58;;;2.20;99.90;;;;;;5025566;28;20168;-73
2022/11/20 11:03:43;;;;;;;46.65;23.55;;;2.20;99.90;;;;;;5035055;28;20029;-73
2022/11/20 11:06:33;;;;;;;42.30;21.83;;;2.30;99.90;;;;;;5015236;28;20044;-73
2022/11/20 11:09:06;;;;;;;43.85;24.17;;;2.40;99.90;;;;;;5010785;28;20096;-72
2022/11/20 11:11:33;;;;;;;41.55;21.75;;;2.40;99.90;;;;;;5029602;28;20364;-71
2022/11/20 11:14:13;;;;;;;41.65;22.20;;;2.40;99.90;;;;;;5024620;28;20041;-72
2022/11/20 11:17:00;;;;;;;48.38;24.30;;;2.50;99.90;;;;;;5028703;28;20060;-72
2022/11/20 11:19:25;;;;;;;40.63;22.75;;;2.50;99.90;;;;;;5032139;28;20048;-72
2022/11/20 11:21:56;;;;;;;43.85;23.48;;;2.60;99.90;;;;;;5032804;28;20021;-72
2022/11/20 11:24:27;;;;;;;40.95;23.08;;;2.60;99.90;;;;;;5027706;28;20037;-72
2022/11/20 11:26:59;;;;;;;46.25;24.75;;;2.60;99.90;;;;;;5033413;28;20030;-71
2022/11/20 11:29:30;;;;;;;43.47;24.73;;;2.70;99.90;;;;;;5029588;28;20479;-71
2022/11/20 11:32:07;;;;;;;44.45;23.55;;;2.80;99.90;;;;;;5032542;28;20499;-72
2022/11/20 11:34:33;;;;;;;42.22;23.50;;;2.80;99.90;;;;;;5040566;28;20050;-72
2022/11/20 11:37:00;;;;;;;46.17;24.13;;;2.90;99.90;;;;;;5033959;28;20037;-72
2022/11/20 11:39:28;;;;;;;43.50;23.85;;;2.90;99.90;;;;;;5029590;28;20124;-72
2022/11/20 11:41:54;;;;;;;44.60;23.70;;;2.90;99.90;;;;;;5030226;28;20021;-72
2022/11/20 11:47:26;;;;;;;45.35;23.58;;;3.00;99.90;;;;;;5029172;28;20446;-72
2022/11/20 11:50:08;;;;;;;45.25;24.23;;;3.10;99.90;;;;;;5009383;28;20032;-72
2022/11/20 11:52:54;;;;;;;43.92;23.98;;;3.10;99.90;;;;;;5031777;28;20534;-72
2022/11/20 11:55:35;;;;;;;46.58;22.73;;;3.10;99.90;;;;;;5030780;28;20025;-72
2022/11/20 11:58:23;;;;;;;43.67;23.67;;;3.20;99.90;;;;;;5013916;28;20045;-72
2022/11/20 12:01:03;;;;;;;40.85;23.45;;;3.20;99.90;;;;;;5013417;28;20378;-72
2022/11/20 12:03:36;;;;;;;41.47;23.08;;;3.20;99.90;;;;;;5029905;28;20033;-72
2022/11/20 12:06:08;;;;;;;47.80;23.73;;;3.10;99.90;;;;;;5030118;28;20037;-72
2022/11/20 12:08:47;;;;;;;46.83;24.60;;;3.10;99.90;;;;;;5031502;28;20029;-72
2022/11/20 12:11:23;;;;;;;57.10;25.95;;;3.10;99.90;;;;;;5003467;28;20398;-72
2022/11/20 12:14:04;;;;;;;54.03;27.08;;;3.20;99.90;;;;;;5035983;28;20037;-72
2022/11/20 12:16:33;;;;;;;52.45;26.90;;;3.10;99.90;;;;;;5031924;28;20030;-71
2022/11/20 12:18:59;;;;;;;58.25;28.75;;;3.20;99.90;;;;;;5022705;28;20108;-71
2022/11/20 12:21:33;;;;;;;59.03;28.95;;;3.20;99.90;;;;;;5015038;28;20459;-72
2022/11/20 12:24:24;;;;;;;56.35;28.00;;;3.30;99.90;;;;;;5011592;28;20030;-72
2022/11/20 12:27:04;;;;;;;58.20;27.95;;;3.30;99.90;;;;;;5014084;28;20398;-72
2022/11/20 12:29:48;;;;;;;58.83;27.42;;;3.30;99.90;;;;;;5030278;28;20033;-72
2022/11/20 12:32:14;;;;;;;57.10;28.35;;;3.30;99.90;;;;;;5027169;28;20163;-73
2022/11/20 12:35:02;;;;;;;62.20;30.25;;;3.40;99.90;;;;;;5031799;28;20033;-72
2022/11/20 12:37:41;;;;;;;54.20;26.40;;;3.40;99.90;;;;;;5028427;28;20064;-73
2022/11/20 12:40:22;;;;;;;60.28;28.15;;;3.30;99.90;;;;;;5031602;28;20061;-72
2022/11/20 12:45:54;;;;;;;58.92;28.30;;;3.40;99.90;;;;;;5030512;28;20052;-73
2022/11/20 12:48:48;;;;;;;62.45;30.20;;;3.30;99.90;;;;;;5028135;28;20036;-72
2022/11/20 12:51:47;;;;;;;59.45;27.83;;;3.30;99.90;;;;;;5026753;28;20021;-73
2022/11/20 12:54:19;;;;;;;60.55;27.77;;;3.30;99.90;;;;;;5028116;28;20088;-73
2022/11/20 12:56:51;;;;;;;65.87;29.87;;;3.20;99.90;;;;;;5012963;28;20505;-72
2022/11/20 12:59:37;;;;;;;55.55;28.30;;;3.30;99.90;;;;;;5009532;28;20823;-72